Cincinnati, Ohio
Traffic Map
Current Weather Conditions
Cincinnati, Ohio
Overcast
Overcast
32°
Feels Like: 23°
Wind Chill: 23° Ceiling: 2500
Heat Index: 32° Visibility: 7mi
Dew Point: 24° Wind: 12mph
Humidity: 73% Direction: 280° (W)
Pressure: 30.33in Gusts: 0mph
Raw Report DataKLUK 272053Z 28010KT 7SM BKN025 OVC033 00/M04 A3033 RMK AO2 SNB07E23 SLP276 P0000 60000 T00001044 53011
Traffic Incident Summary
Active as of:
Severity:
Category:
InformationThere was an issue retrieving the traffic information for this location. Please try a different location or try again shortly.
Advertisements
Track Severe Weather on mobile